createdAt,value
2022-10-26T00:00:28.876Z,99.99
2022-10-26T00:01:32.366Z,99.99
2022-10-26T00:02:28.876Z,99.99
2022-10-26T00:03:28.868Z,99.99
2022-10-26T00:04:28.838Z,99.99
2022-10-26T00:05:30.142Z,99.99
2022-10-26T00:06:28.871Z,99.99
2022-10-26T00:07:28.927Z,99.99
2022-10-26T00:08:28.817Z,99.99
2022-10-26T00:09:28.825Z,99.99
2022-10-26T00:10:30.919Z,99.99
2022-10-26T00:11:28.725Z,99.99
2022-10-26T00:12:28.724Z,99.99
2022-10-26T00:13:28.765Z,99.99
2022-10-26T00:16:01.890Z,99.99
2022-10-26T00:16:40.793Z,99.99
2022-10-26T00:17:40.691Z,99.99
2022-10-26T00:18:40.722Z,99.99
2022-10-26T00:19:40.937Z,99.99
2022-10-26T00:20:40.724Z,99.99
2022-10-26T00:21:40.697Z,99.99
2022-10-26T00:22:40.832Z,99.99
2022-10-26T00:23:40.794Z,99.99
2022-10-26T00:24:40.571Z,99.99
2022-10-26T00:25:40.602Z,99.99
2022-10-26T00:26:40.574Z,99.99
2022-10-26T00:27:40.573Z,99.99
2022-10-26T00:28:40.577Z,99.99
2022-10-26T00:29:40.514Z,99.99
2022-10-26T00:30:40.933Z,99.99
2022-10-26T00:31:40.539Z,99.99
2022-10-26T00:33:40.553Z,99.99
2022-10-26T00:34:40.466Z,99.99
2022-10-26T00:35:45.904Z,99.99
2022-10-26T00:36:41.528Z,99.99
2022-10-26T00:37:40.527Z,99.99
2022-10-26T00:38:40.427Z,99.99
2022-10-26T00:39:40.449Z,99.99
2022-10-26T00:40:40.511Z,99.99
2022-10-26T00:41:40.478Z,99.99
2022-10-26T00:42:40.389Z,99.99
2022-10-26T00:43:40.391Z,99.99
2022-10-26T00:44:40.390Z,99.99
2022-10-26T00:45:40.371Z,99.99
2022-10-26T00:46:40.349Z,99.99
2022-10-26T00:47:40.327Z,99.99
2022-10-26T00:48:40.726Z,99.99
2022-10-26T00:49:41.588Z,99.99
2022-10-26T00:50:40.595Z,99.99
2022-10-26T00:51:40.725Z,99.99
2022-10-26T00:52:40.606Z,99.99
2022-10-26T00:53:40.274Z,99.99
2022-10-26T00:54:40.231Z,99.99
2022-10-26T00:55:40.183Z,99.99
2022-10-26T00:56:40.196Z,99.99
2022-10-26T00:57:40.264Z,99.99
2022-10-26T00:58:40.847Z,99.99
2022-10-26T00:59:40.101Z,99.99
2022-10-26T01:00:40.059Z,99.99
2022-10-26T01:01:40.136Z,99.99
2022-10-26T01:02:41.017Z,99.99
2022-10-26T01:03:40.105Z,99.99
2022-10-26T01:04:40.021Z,99.99
2022-10-26T01:05:40.941Z,99.99
2022-10-26T01:06:40.088Z,99.99
2022-10-26T01:07:39.976Z,99.99
2022-10-26T01:08:40.000Z,99.99
2022-10-26T01:09:39.991Z,99.99
2022-10-26T01:10:40.069Z,99.99
2022-10-26T01:19:07.803Z,99.99
2022-10-26T01:20:07.769Z,99.99
2022-10-26T01:21:08.047Z,99.99
2022-10-26T01:22:07.699Z,99.99
2022-10-26T01:23:07.813Z,99.99
2022-10-26T01:24:07.820Z,99.99
2022-10-26T01:25:07.661Z,99.99
2022-10-26T01:26:07.621Z,99.99
2022-10-26T01:27:07.634Z,99.99
2022-10-26T01:28:07.589Z,99.99
2022-10-26T01:29:07.597Z,99.99
2022-10-26T01:30:07.600Z,99.99
2022-10-26T01:31:07.600Z,99.99
2022-10-26T01:32:07.880Z,99.99
2022-10-26T01:33:07.555Z,99.99
2022-10-26T01:34:07.524Z,99.99
2022-10-26T01:35:07.667Z,99.99
2022-10-26T01:36:07.522Z,99.99
2022-10-26T01:37:07.483Z,99.99
2022-10-26T01:38:07.675Z,99.99
2022-10-26T01:39:07.652Z,99.99
2022-10-26T01:40:07.525Z,99.99
2022-10-26T01:41:08.502Z,99.99
2022-10-26T01:42:07.459Z,99.99
2022-10-26T01:43:08.133Z,99.99
2022-10-26T01:44:07.496Z,99.99
2022-10-26T01:45:07.406Z,99.99
2022-10-26T02:19:40.733Z,99.99
2022-10-26T02:20:37.536Z,99.99
2022-10-26T02:21:37.576Z,99.99
2022-10-26T02:22:37.515Z,99.99
2022-10-26T02:23:37.497Z,99.99
2022-10-26T02:24:37.543Z,99.99
2022-10-26T02:25:38.148Z,99.99
2022-10-26T02:26:38.330Z,99.99
2022-10-26T02:27:37.525Z,99.99
2022-10-26T02:28:37.447Z,99.99
2022-10-26T02:29:37.418Z,99.99
2022-10-26T02:30:37.503Z,99.99
2022-10-26T02:31:37.586Z,99.99
2022-10-26T02:32:37.489Z,99.99
2022-10-26T02:33:37.429Z,99.99
2022-10-26T02:34:37.535Z,99.99
2022-10-26T02:35:37.376Z,99.99
2022-10-26T02:36:37.307Z,99.99
2022-10-26T02:37:38.239Z,99.99
2022-10-26T02:38:37.386Z,99.99
2022-10-26T02:39:37.329Z,99.99
2022-10-26T02:40:37.266Z,99.99
2022-10-26T02:41:37.289Z,99.99
2022-10-26T02:42:37.348Z,99.99
2022-10-26T02:43:37.361Z,99.99
2022-10-26T02:44:37.492Z,99.99
2022-10-26T02:45:37.363Z,99.99
2022-10-26T02:46:37.169Z,99.99
2022-10-26T02:47:37.243Z,99.99
2022-10-26T02:48:37.251Z,99.99
2022-10-26T02:49:37.171Z,99.99
2022-10-26T02:50:37.162Z,99.99
2022-10-26T02:51:37.175Z,99.99
2022-10-26T02:52:37.212Z,99.99
2022-10-26T02:53:37.193Z,99.99
2022-10-26T02:54:37.115Z,99.99
2022-10-26T02:55:37.112Z,99.99
2022-10-26T02:56:37.040Z,99.99
2022-10-26T02:57:37.143Z,99.99
2022-10-26T02:58:37.046Z,99.99
2022-10-26T02:59:37.122Z,99.99
2022-10-26T03:00:37.153Z,99.99
2022-10-26T03:01:37.143Z,99.99
2022-10-26T03:02:37.303Z,99.99
2022-10-26T03:03:37.064Z,99.99
2022-10-26T03:04:36.957Z,99.99
2022-10-26T03:05:36.972Z,99.99
2022-10-26T03:06:36.944Z,99.99
2022-10-26T03:07:36.967Z,99.99
2022-10-26T03:08:36.892Z,99.99
2022-10-26T03:09:36.905Z,99.99
2022-10-26T03:10:37.644Z,99.99
2022-10-26T03:11:36.916Z,99.99
2022-10-26T03:12:37.267Z,99.99
2022-10-26T03:13:36.874Z,99.99
2022-10-26T03:14:36.892Z,99.99
2022-10-26T03:15:36.856Z,99.99
2022-10-26T03:16:36.863Z,99.99
2022-10-26T03:17:36.854Z,99.99
2022-10-26T03:18:36.787Z,99.99
2022-10-26T03:19:36.825Z,99.99
2022-10-26T03:20:36.865Z,99.99
2022-10-26T03:21:36.819Z,99.99
2022-10-26T03:22:36.732Z,99.99
2022-10-26T03:23:36.748Z,99.99
2022-10-26T03:24:36.705Z,99.99
2022-10-26T03:25:36.737Z,99.99
2022-10-26T03:26:36.749Z,99.99
2022-10-26T03:27:36.658Z,99.99
2022-10-26T03:28:36.668Z,99.99
2022-10-26T03:29:36.728Z,99.99
2022-10-26T03:30:36.731Z,99.99
2022-10-26T03:31:36.652Z,99.99
2022-10-26T03:32:36.713Z,99.99
2022-10-26T03:34:36.680Z,99.99
2022-10-26T03:35:36.511Z,99.99
2022-10-26T03:36:37.705Z,99.99
2022-10-26T03:37:36.559Z,99.99
2022-10-26T03:38:36.579Z,99.99
2022-10-26T03:39:36.561Z,99.99
2022-10-26T03:40:36.588Z,99.99
2022-10-26T03:41:36.838Z,99.99
2022-10-26T03:42:36.472Z,99.99
2022-10-26T03:43:36.516Z,99.99
2022-10-26T03:44:36.438Z,99.99
2022-10-26T03:45:36.409Z,99.99
2022-10-26T03:46:37.296Z,99.99
2022-10-26T03:47:37.161Z,99.99
2022-10-26T03:48:37.429Z,99.99
2022-10-26T03:49:36.439Z,99.99
2022-10-26T03:50:37.173Z,99.99
2022-10-26T03:51:36.309Z,99.99
2022-10-26T03:52:36.380Z,99.99
2022-10-26T03:53:36.372Z,99.99
2022-10-26T03:54:36.300Z,99.99
2022-10-26T03:55:36.397Z,99.99
2022-10-26T03:56:36.262Z,99.99
2022-10-26T03:57:36.232Z,99.99
2022-10-26T03:58:36.242Z,99.99
2022-10-26T03:59:37.043Z,99.99
2022-10-26T04:00:37.664Z,99.99
2022-10-26T04:01:36.373Z,99.99
2022-10-26T04:02:36.182Z,99.99
2022-10-26T04:03:36.250Z,99.99
2022-10-26T04:04:36.277Z,99.99
2022-10-26T04:05:36.232Z,99.99
2022-10-26T04:06:36.149Z,99.99
2022-10-26T04:07:36.290Z,99.99
2022-10-26T04:08:36.074Z,99.99
2022-10-26T04:09:36.100Z,99.99
2022-10-26T04:10:36.653Z,99.99
2022-10-26T04:11:36.180Z,99.99
2022-10-26T04:12:36.153Z,99.99
2022-10-26T04:13:36.596Z,99.99
2022-10-26T04:14:36.164Z,99.99
2022-10-26T04:15:36.073Z,99.99
2022-10-26T04:16:36.043Z,99.99
2022-10-26T04:17:36.043Z,99.99
2022-10-26T04:18:35.944Z,99.99
2022-10-26T04:19:36.015Z,99.99
2022-10-26T04:20:36.153Z,99.99
2022-10-26T04:21:35.994Z,99.99
2022-10-26T04:22:35.987Z,99.99
2022-10-26T04:23:35.888Z,99.99
2022-10-26T04:24:35.988Z,99.99
2022-10-26T04:25:35.988Z,99.99
2022-10-26T04:26:35.926Z,99.99
2022-10-26T04:27:35.977Z,99.99
2022-10-26T04:28:36.437Z,99.99
2022-10-26T04:29:36.159Z,99.99
2022-10-26T04:30:35.777Z,99.99
2022-10-26T04:39:49.199Z,99.99
2022-10-26T04:40:55.945Z,99.99
2022-10-26T04:41:48.462Z,99.99
2022-10-26T04:42:48.683Z,99.99
2022-10-26T04:43:49.129Z,99.99
2022-10-26T04:44:48.797Z,99.99
2022-10-26T04:45:49.270Z,99.99
2022-10-26T04:46:48.710Z,99.99
2022-10-26T04:47:49.573Z,99.99
2022-10-26T04:48:49.558Z,99.99
2022-10-26T04:49:52.102Z,99.99
2022-10-26T04:50:48.361Z,99.99
2022-10-26T04:51:48.465Z,99.99
2022-10-26T04:52:50.136Z,99.99
2022-10-26T04:53:50.823Z,99.99
2022-10-26T04:54:50.107Z,99.99
2022-10-26T04:55:52.219Z,99.99
2022-10-26T04:56:49.966Z,99.99
2022-10-26T04:57:49.809Z,99.99
2022-10-26T04:58:49.683Z,99.99
2022-10-26T04:59:48.625Z,99.99
2022-10-26T05:00:48.517Z,99.99
2022-10-26T05:01:48.678Z,99.99
2022-10-26T05:02:48.143Z,99.99
2022-10-26T05:03:48.126Z,99.99
2022-10-26T05:04:48.492Z,99.99
2022-10-26T05:05:48.917Z,99.99
2022-10-26T05:06:48.296Z,99.99
2022-10-26T05:07:48.656Z,99.99
2022-10-26T05:08:49.660Z,99.99
2022-10-26T05:09:49.156Z,99.99
2022-10-26T05:10:53.973Z,99.99
2022-10-26T05:11:50.952Z,99.99
2022-10-26T05:12:52.518Z,99.99
2022-10-26T07:54:25.612Z,99.99
2022-10-26T07:55:04.832Z,99.99
2022-10-26T07:56:04.296Z,99.99
2022-10-26T07:58:05.878Z,99.99
2022-10-26T07:59:05.111Z,99.99
2022-10-26T08:00:04.258Z,99.99
2022-10-26T08:01:04.260Z,99.99
2022-10-26T08:02:04.223Z,99.99
2022-10-26T08:03:04.108Z,99.99
2022-10-26T08:04:04.109Z,99.99
2022-10-26T08:05:04.408Z,99.99
2022-10-26T08:06:04.161Z,99.99
2022-10-26T08:07:04.269Z,99.99
2022-10-26T08:08:04.110Z,99.99
2022-10-26T08:09:04.041Z,99.99
2022-10-26T08:10:04.151Z,99.99
2022-10-26T08:11:04.110Z,99.99
2022-10-26T08:12:04.162Z,99.99
2022-10-26T08:13:04.863Z,99.99
2022-10-26T08:14:04.002Z,99.99
2022-10-26T08:15:05.606Z,99.99
2022-10-26T08:16:04.203Z,99.99
2022-10-26T08:17:04.426Z,99.99
2022-10-26T08:18:04.179Z,99.99
2022-10-26T08:19:04.311Z,99.99
2022-10-26T08:20:04.001Z,99.99
2022-10-26T08:21:10.802Z,99.99
2022-10-26T08:22:04.979Z,99.99
2022-10-26T08:23:03.911Z,99.99
2022-10-26T08:24:03.897Z,99.99
2022-10-26T08:25:04.312Z,99.99
2022-10-26T08:26:03.859Z,99.99
2022-10-26T08:27:03.865Z,99.99
2022-10-26T08:28:03.868Z,99.99
2022-10-26T08:29:04.199Z,99.99
2022-10-26T08:30:04.943Z,99.99
2022-10-26T08:31:03.807Z,99.99
2022-10-26T08:32:03.832Z,99.99
2022-10-26T08:33:03.940Z,99.99
2022-10-26T08:34:03.733Z,99.99
2022-10-26T08:35:03.709Z,99.99
2022-10-26T08:36:03.646Z,99.99
2022-10-26T08:37:03.747Z,99.99
2022-10-26T08:38:04.104Z,99.99
2022-10-26T08:39:03.711Z,99.99
2022-10-26T08:40:04.437Z,99.99
2022-10-26T08:41:04.594Z,99.99
2022-10-26T08:42:03.616Z,99.99
2022-10-26T08:43:04.408Z,99.99
2022-10-26T08:44:04.535Z,99.99
2022-10-26T08:45:04.458Z,99.99
2022-10-26T08:46:03.539Z,99.99
2022-10-26T08:47:03.488Z,99.99
2022-10-26T08:48:03.538Z,99.99
2022-10-26T08:49:03.557Z,99.99
2022-10-26T08:50:04.240Z,99.99
2022-10-26T08:51:04.401Z,99.99
2022-10-26T08:52:04.308Z,99.99
2022-10-26T08:53:03.541Z,99.99
2022-10-26T08:54:03.529Z,99.99
2022-10-26T08:55:03.508Z,99.99
2022-10-26T08:56:04.941Z,99.99
2022-10-26T08:57:03.369Z,99.99
2022-10-26T08:58:04.313Z,99.99
2022-10-26T08:59:03.410Z,99.99
2022-10-26T09:00:04.343Z,99.99
2022-10-26T09:01:03.449Z,99.99
2022-10-26T09:02:03.390Z,99.99
2022-10-26T09:03:03.289Z,99.99
2022-10-26T09:04:03.394Z,99.99
2022-10-26T09:05:04.085Z,99.99
2022-10-26T09:06:03.644Z,99.99
2022-10-26T09:07:05.052Z,99.99
2022-10-26T09:08:03.222Z,99.99
2022-10-26T09:09:03.953Z,99.99
2022-10-26T09:10:03.203Z,99.99
2022-10-26T09:11:04.034Z,99.99
2022-10-26T09:12:03.198Z,99.99
2022-10-26T09:13:03.142Z,99.99
2022-10-26T09:14:03.172Z,99.99
2022-10-26T09:15:03.212Z,99.99
2022-10-26T09:16:04.015Z,99.99
2022-10-26T09:17:03.145Z,99.99
2022-10-26T09:18:03.855Z,99.99
2022-10-26T09:19:03.207Z,99.99
2022-10-26T09:20:03.025Z,99.99
2022-10-26T09:21:03.074Z,99.99
2022-10-26T09:22:03.068Z,99.99
2022-10-26T09:23:03.006Z,99.99
2022-10-26T09:24:03.856Z,99.99
2022-10-26T09:25:05.461Z,99.99
2022-10-26T09:26:03.073Z,99.99
2022-10-26T09:27:03.356Z,99.99
2022-10-26T09:28:03.139Z,99.99
2022-10-26T09:29:03.897Z,99.99
2022-10-26T09:30:03.776Z,99.99
2022-10-26T09:31:02.926Z,99.99
2022-10-26T09:32:03.715Z,99.99
2022-10-26T09:33:03.083Z,99.99
2022-10-26T09:34:02.912Z,99.99
2022-10-26T09:35:03.041Z,99.99
2022-10-26T09:36:02.858Z,99.99
2022-10-26T09:37:02.864Z,99.99
2022-10-26T09:38:03.231Z,99.99
2022-10-26T09:39:02.807Z,99.99
2022-10-26T09:40:03.232Z,99.99
2022-10-26T09:41:03.315Z,99.99
2022-10-26T09:42:02.994Z,99.99
2022-10-26T09:43:02.760Z,99.99
2022-10-26T09:44:02.747Z,99.99
2022-10-26T09:45:02.790Z,99.99
2022-10-26T09:46:02.849Z,99.99
2022-10-26T09:47:02.838Z,99.99
2022-10-26T09:48:05.256Z,99.99
2022-10-26T09:50:02.814Z,99.99
2022-10-26T09:51:04.662Z,99.99
2022-10-26T09:52:02.685Z,99.99
2022-10-26T09:53:02.562Z,99.99
2022-10-26T09:54:02.582Z,99.99
2022-10-26T09:55:03.023Z,99.99
2022-10-26T09:56:02.567Z,99.99
2022-10-26T09:57:02.706Z,99.99
2022-10-26T09:58:02.653Z,99.99
2022-10-26T09:59:02.504Z,99.99
2022-10-26T10:00:02.563Z,99.99
2022-10-26T10:01:02.589Z,99.99
2022-10-26T10:02:02.520Z,99.99
2022-10-26T10:03:03.052Z,99.99
2022-10-26T10:04:02.523Z,99.99
2022-10-26T10:05:02.432Z,99.99
2022-10-26T10:06:02.438Z,99.99
2022-10-26T10:07:02.435Z,99.99
2022-10-26T10:08:02.427Z,99.99
2022-10-26T10:09:02.368Z,99.99
2022-10-26T10:10:02.357Z,99.99
2022-10-26T10:11:02.315Z,99.99
2022-10-26T10:12:02.325Z,99.99
2022-10-26T10:13:02.348Z,99.99
2022-10-26T10:14:02.303Z,99.99
2022-10-26T10:15:02.257Z,99.99
2022-10-26T10:16:02.379Z,99.99
2022-10-26T10:17:02.258Z,99.99
2022-10-26T10:18:02.235Z,99.99
2022-10-26T10:19:02.269Z,99.99
2022-10-26T10:20:02.301Z,99.99
2022-10-26T10:21:02.248Z,99.99
2022-10-26T10:22:02.248Z,99.99
2022-10-26T10:23:02.249Z,99.99
2022-10-26T10:24:02.255Z,99.99
2022-10-26T10:25:02.157Z,99.99
2022-10-26T10:26:02.165Z,99.99
2022-10-26T10:27:02.110Z,99.99
2022-10-26T10:28:02.077Z,99.99
2022-10-26T10:29:02.079Z,99.99
2022-10-26T10:30:04.295Z,99.99
2022-10-26T10:31:02.417Z,99.99
2022-10-26T10:32:02.081Z,99.99
2022-10-26T10:33:02.154Z,99.99
2022-10-26T10:34:02.072Z,99.99
2022-10-26T10:35:02.185Z,99.99
2022-10-26T10:36:02.444Z,99.99
2022-10-26T10:37:02.063Z,99.99
2022-10-26T10:38:02.822Z,99.99
2022-10-26T10:39:01.944Z,99.99
2022-10-26T10:40:01.974Z,99.99
2022-10-26T10:41:02.008Z,99.99
2022-10-26T10:42:01.967Z,99.99
2022-10-26T10:43:01.957Z,99.99
2022-10-26T10:44:01.925Z,99.99
2022-10-26T10:45:01.925Z,99.99
2022-10-26T10:46:01.875Z,99.99
2022-10-26T10:47:01.876Z,99.99
2022-10-26T10:48:01.917Z,99.99
2022-10-26T10:49:01.901Z,99.99
2022-10-26T10:50:01.797Z,99.99
2022-10-26T10:51:02.254Z,99.99
2022-10-26T10:52:01.770Z,99.99
2022-10-26T10:53:01.769Z,99.99
2022-10-26T10:54:01.730Z,99.99
2022-10-26T10:55:01.768Z,99.99
2022-10-26T10:56:01.757Z,99.99
2022-10-26T10:57:01.722Z,99.99
2022-10-26T10:58:01.698Z,99.99
2022-10-26T10:59:01.762Z,99.99
2022-10-26T11:00:01.659Z,99.99
2022-10-26T11:01:01.701Z,99.99
2022-10-26T11:02:01.772Z,99.99
2022-10-26T11:03:01.681Z,99.99
2022-10-26T11:04:01.700Z,99.99
2022-10-26T11:05:01.948Z,99.99
2022-10-26T11:06:01.602Z,99.99
2022-10-26T11:07:01.527Z,99.99
2022-10-26T11:08:01.693Z,99.99
2022-10-26T11:09:01.541Z,99.99
2022-10-26T11:10:01.544Z,99.99
2022-10-26T11:11:01.723Z,99.99
2022-10-26T11:12:01.483Z,99.99
2022-10-26T11:13:01.767Z,99.99
2022-10-26T11:14:01.681Z,99.99
2022-10-26T11:15:01.572Z,99.99
2022-10-26T11:16:01.571Z,99.99
2022-10-26T11:17:01.450Z,99.99
2022-10-26T11:18:01.384Z,99.99
2022-10-26T11:19:01.423Z,99.99
2022-10-26T11:20:01.565Z,99.99
2022-10-26T11:21:01.327Z,99.99
2022-10-26T11:22:01.457Z,99.99
2022-10-26T11:23:01.838Z,99.99
2022-10-26T11:24:01.321Z,99.99
2022-10-26T11:25:01.478Z,99.99
2022-10-26T11:26:01.375Z,99.99
2022-10-26T11:27:01.505Z,99.99
2022-10-26T11:28:01.352Z,99.99
2022-10-26T11:29:01.393Z,99.99
2022-10-26T11:30:01.287Z,99.99
2022-10-26T11:31:01.269Z,99.99
2022-10-26T11:32:01.208Z,99.99
2022-10-26T11:33:01.668Z,99.99
2022-10-26T11:34:01.218Z,99.99
2022-10-26T11:35:01.365Z,99.99
2022-10-26T11:36:01.168Z,99.99
2022-10-26T11:37:01.192Z,99.99
2022-10-26T11:38:01.255Z,99.99
2022-10-26T11:39:02.803Z,99.99
2022-10-26T11:40:02.261Z,99.99
2022-10-26T11:41:01.103Z,99.99
2022-10-26T11:42:01.239Z,99.99
2022-10-26T11:43:01.090Z,99.99
2022-10-26T11:44:01.114Z,99.99
2022-10-26T11:45:01.233Z,99.38
2022-10-26T11:46:01.114Z,99.02
2022-10-26T11:47:01.177Z,99.18
2022-10-26T11:48:01.208Z,98.18
2022-10-26T11:49:01.039Z,96.92
2022-10-26T11:50:01.184Z,94.82
2022-10-26T11:51:01.060Z,94.27
2022-10-26T11:52:01.003Z,93.28
2022-10-26T11:53:01.015Z,89.01
2022-10-26T11:54:00.921Z,89.87
2022-10-26T11:55:00.891Z,91.74
2022-10-26T11:56:00.906Z,91.15
2022-10-26T11:57:01.017Z,88.20
2022-10-26T11:58:00.853Z,86.25
2022-10-26T12:00:00.817Z,91.58
2022-10-26T12:01:00.876Z,90.08
2022-10-26T12:02:01.384Z,89.43
2022-10-26T12:03:01.069Z,85.29
2022-10-26T12:04:01.529Z,86.95
2022-10-26T12:05:00.906Z,84.25
2022-10-26T12:06:00.916Z,82.55
2022-10-26T12:07:00.767Z,84.21
2022-10-26T12:08:00.821Z,86.41
2022-10-26T12:09:00.819Z,80.91
2022-10-26T12:10:00.689Z,82.91
2022-10-26T12:11:01.067Z,79.72
2022-10-26T12:12:00.872Z,78.61
2022-10-26T12:13:00.694Z,81.01
2022-10-26T12:14:00.694Z,78.12
2022-10-26T12:15:00.802Z,76.15
2022-10-26T12:16:04.596Z,80.69
2022-10-26T12:17:00.663Z,81.65
2022-10-26T12:18:00.682Z,83.95
2022-10-26T12:19:00.614Z,79.41
2022-10-26T12:20:00.573Z,80.51
2022-10-26T12:21:00.617Z,79.08
2022-10-26T12:22:00.574Z,80.88
2022-10-26T12:23:00.634Z,80.74
2022-10-26T12:24:00.694Z,80.04
2022-10-26T12:25:00.677Z,77.64
2022-10-26T12:26:00.485Z,77.94
2022-10-26T12:27:00.451Z,75.15
2022-10-26T12:28:00.513Z,81.40
2022-10-26T12:29:00.398Z,80.50
2022-10-26T12:30:00.587Z,80.96
2022-10-26T12:31:00.452Z,80.16
2022-10-26T12:32:00.427Z,76.27
2022-10-26T12:33:00.410Z,76.34
2022-10-26T12:34:00.365Z,77.63
2022-10-26T12:35:00.632Z,75.64
2022-10-26T12:36:00.772Z,77.07
2022-10-26T12:37:00.409Z,76.87
2022-10-26T12:38:00.310Z,77.27
2022-10-26T12:39:00.398Z,76.67
2022-10-26T12:40:00.649Z,74.81
2022-10-26T12:41:00.233Z,77.25
2022-10-26T12:42:00.325Z,77.55
2022-10-26T12:43:00.486Z,75.78
2022-10-26T12:44:01.285Z,78.14
2022-10-26T12:45:00.243Z,77.04
2022-10-26T12:46:00.202Z,79.60
2022-10-26T12:47:00.354Z,72.92
2022-10-26T12:48:07.007Z,75.11
2022-10-26T12:49:01.225Z,76.51
2022-10-26T12:50:00.196Z,75.91
2022-10-26T12:51:00.339Z,76.51
2022-10-26T12:53:00.139Z,76.69
2022-10-26T12:54:00.308Z,80.03
2022-10-26T12:55:00.476Z,79.97
2022-10-26T12:56:00.641Z,78.43
2022-10-26T12:57:00.080Z,79.39
2022-10-26T12:58:00.024Z,80.63
2022-10-26T12:59:04.326Z,80.83
2022-10-26T13:00:00.365Z,78.49
2022-10-26T13:01:00.090Z,79.73
2022-10-26T13:01:59.949Z,78.03
2022-10-26T13:03:00.031Z,77.93
2022-10-26T13:04:00.184Z,81.63
2022-10-26T13:04:59.963Z,77.13
2022-10-26T13:05:59.884Z,80.33
2022-10-26T13:07:00.053Z,78.13
2022-10-26T13:08:00.098Z,78.53
2022-10-26T13:09:03.094Z,80.83
2022-10-26T13:09:59.881Z,81.93
2022-10-26T13:10:59.975Z,79.69
2022-10-26T13:11:59.890Z,78.89
2022-10-26T13:12:59.927Z,80.89
2022-10-26T13:13:59.984Z,78.96
2022-10-26T13:15:00.454Z,78.75
2022-10-26T13:15:59.857Z,76.06
2022-10-26T13:16:59.817Z,74.96
2022-10-26T13:17:59.881Z,74.66
2022-10-26T13:18:59.738Z,77.22
2022-10-26T13:19:59.789Z,78.52
2022-10-26T13:20:59.802Z,75.12
2022-10-26T13:22:00.002Z,76.08
2022-10-26T13:22:59.759Z,77.12
2022-10-26T13:23:59.826Z,76.32
2022-10-26T13:24:59.781Z,77.06
2022-10-26T13:25:59.638Z,76.89
2022-10-26T13:26:59.815Z,77.49
2022-10-26T13:27:59.764Z,77.09
2022-10-26T13:28:59.821Z,78.03
2022-10-26T13:29:59.604Z,79.63
2022-10-26T13:30:59.572Z,79.17
2022-10-26T13:31:59.615Z,78.91
2022-10-26T13:32:59.581Z,80.80
2022-10-26T13:33:59.548Z,80.94
2022-10-26T13:34:59.603Z,80.18
2022-10-26T13:35:59.554Z,80.08
2022-10-26T13:36:59.507Z,81.42
2022-10-26T13:37:59.454Z,81.42
2022-10-26T13:38:59.448Z,81.29
2022-10-26T13:39:59.445Z,82.12
2022-10-26T13:40:59.674Z,83.43
2022-10-26T13:41:59.407Z,83.77
2022-10-26T13:42:59.379Z,83.47
2022-10-26T13:43:59.469Z,84.41
2022-10-26T13:44:59.570Z,86.26
2022-10-26T13:45:59.349Z,84.09
2022-10-26T13:46:59.383Z,85.44
2022-10-26T13:47:59.345Z,86.48
2022-10-26T13:48:59.316Z,87.63
2022-10-26T13:49:59.368Z,89.34
2022-10-26T13:50:59.345Z,88.78
2022-10-26T13:51:59.268Z,89.48
2022-10-26T13:52:59.281Z,89.39
2022-10-26T13:53:59.271Z,89.32
2022-10-26T13:54:59.328Z,89.93
2022-10-26T13:55:59.226Z,91.34
2022-10-26T13:56:59.198Z,90.94
2022-10-26T13:57:59.232Z,90.98
2022-10-26T13:58:59.156Z,91.38
2022-10-26T14:00:03.049Z,90.88
2022-10-26T14:01:00.247Z,90.78
2022-10-26T14:01:59.201Z,90.42
2022-10-26T14:02:59.115Z,90.11
2022-10-26T14:03:59.122Z,90.11
2022-10-26T14:04:59.116Z,91.13
2022-10-26T14:05:59.086Z,91.33
2022-10-26T14:06:59.046Z,92.74
2022-10-26T14:07:59.113Z,93.34
2022-10-26T14:08:59.044Z,93.69
2022-10-26T14:09:59.011Z,92.78
2022-10-26T14:10:59.000Z,92.98
2022-10-26T14:11:58.998Z,92.58
2022-10-26T14:12:59.045Z,93.08
2022-10-26T14:13:58.988Z,93.02
2022-10-26T14:14:59.022Z,92.93
2022-10-26T14:15:58.966Z,93.02
2022-10-26T14:16:58.908Z,93.43
2022-10-26T14:17:59.066Z,94.08
2022-10-26T14:18:58.983Z,93.77
2022-10-26T14:19:58.876Z,94.59
2022-10-26T14:20:58.859Z,94.18
2022-10-26T14:21:58.979Z,93.17
2022-10-26T14:22:58.818Z,93.82
2022-10-26T14:23:58.864Z,94.12
2022-10-26T14:24:58.830Z,94.83
2022-10-26T14:25:59.409Z,93.72
2022-10-26T14:26:58.804Z,94.23
2022-10-26T14:27:58.805Z,94.02
2022-10-26T14:28:59.608Z,94.27
2022-10-26T14:30:21.053Z,94.98
2022-10-26T14:30:59.732Z,94.47
2022-10-26T14:31:58.683Z,95.48
2022-10-26T14:32:58.675Z,94.78
2022-10-26T14:33:59.640Z,95.07
2022-10-26T14:34:58.625Z,94.78
2022-10-26T14:35:58.667Z,94.78
2022-10-26T14:36:58.658Z,94.87
2022-10-26T14:37:58.665Z,94.87
2022-10-26T14:38:59.419Z,94.98
2022-10-26T14:39:58.616Z,94.83
2022-10-26T14:40:58.617Z,95.03
2022-10-26T14:41:58.600Z,94.43
2022-10-26T14:42:58.533Z,95.54
2022-10-26T14:43:58.520Z,94.73
2022-10-26T14:44:58.586Z,95.09
2022-10-26T14:45:58.489Z,95.70
2022-10-26T14:46:58.980Z,94.79
2022-10-26T14:47:58.526Z,94.59
2022-10-26T14:48:58.581Z,94.79
2022-10-26T14:50:58.429Z,94.38
2022-10-26T14:51:58.445Z,93.57
2022-10-26T14:52:58.393Z,93.77
2022-10-26T14:53:58.385Z,92.86
2022-10-26T14:54:58.381Z,93.48
2022-10-26T14:55:58.424Z,93.37
2022-10-26T14:56:58.372Z,93.77
2022-10-26T14:57:58.333Z,93.72
2022-10-26T14:58:59.286Z,93.82
2022-10-26T14:59:58.331Z,93.41
2022-10-26T15:00:58.368Z,93.72
2022-10-26T15:01:58.369Z,94.02
2022-10-26T15:02:58.258Z,94.73
2022-10-26T15:03:58.236Z,95.07
2022-10-26T15:04:58.284Z,94.98
2022-10-26T15:05:58.265Z,95.18
2022-10-26T15:06:58.218Z,95.43
2022-10-26T15:07:58.227Z,95.73
2022-10-26T15:08:58.205Z,95.12
2022-10-26T15:09:58.208Z,95.93
2022-10-26T15:10:58.156Z,95.83
2022-10-26T15:11:58.208Z,96.78
2022-10-26T15:12:58.126Z,96.69
2022-10-26T15:13:58.129Z,96.89
2022-10-26T15:14:58.138Z,97.60
2022-10-26T15:15:58.544Z,97.64
2022-10-26T15:16:58.099Z,98.14
2022-10-26T15:17:58.076Z,98.35
2022-10-26T15:18:58.090Z,98.70
2022-10-26T15:19:58.567Z,98.80
2022-10-26T15:20:58.151Z,99.10
2022-10-26T15:21:58.030Z,99.01
2022-10-26T15:22:58.099Z,99.55
2022-10-26T15:23:57.986Z,99.46
2022-10-26T15:24:59.449Z,99.35
2022-10-26T15:25:58.732Z,99.35
2022-10-26T15:26:57.970Z,99.86
2022-10-26T15:27:57.922Z,99.66
2022-10-26T15:28:57.900Z,99.76
2022-10-26T15:29:57.892Z,99.99
2022-10-26T15:31:00.952Z,99.99
2022-10-26T15:31:57.906Z,99.99
2022-10-26T15:32:57.862Z,99.99
2022-10-26T15:33:57.865Z,99.99
2022-10-26T15:34:57.864Z,99.99
2022-10-26T15:35:59.313Z,99.99
2022-10-26T15:36:57.891Z,99.99
2022-10-26T15:37:57.766Z,99.99
2022-10-26T15:38:57.794Z,99.99
2022-10-26T15:39:58.665Z,99.99
2022-10-26T15:40:57.778Z,99.99
2022-10-26T15:41:57.725Z,99.99
2022-10-26T15:42:57.707Z,99.99
2022-10-26T15:43:57.721Z,99.99
2022-10-26T15:44:57.710Z,99.99
2022-10-26T15:45:58.609Z,99.99
2022-10-26T15:46:58.516Z,99.99
2022-10-26T15:47:57.626Z,99.99
2022-10-26T15:48:58.630Z,99.99
2022-10-26T15:49:57.658Z,99.99
2022-10-26T15:50:57.627Z,99.99
2022-10-26T15:51:58.685Z,99.99
2022-10-26T15:52:59.050Z,99.99
2022-10-26T15:53:57.578Z,99.99
2022-10-26T15:54:57.555Z,99.99
2022-10-26T15:55:58.412Z,99.99
2022-10-26T15:56:57.660Z,99.99
2022-10-26T15:57:57.568Z,99.99
2022-10-26T15:58:58.380Z,99.99
2022-10-26T15:59:57.460Z,99.99
2022-10-26T16:00:57.490Z,99.99
2022-10-26T16:01:57.557Z,99.99
2022-10-26T16:02:57.522Z,99.99
2022-10-26T16:03:57.442Z,99.99
2022-10-26T16:04:57.390Z,99.99
2022-10-26T16:05:57.434Z,99.99
2022-10-26T16:06:57.401Z,99.99
2022-10-26T16:07:57.414Z,99.99
2022-10-26T16:08:57.436Z,99.99
2022-10-26T16:09:58.150Z,99.99
2022-10-26T16:10:58.258Z,99.99
2022-10-26T16:11:58.211Z,99.99
2022-10-26T16:12:58.063Z,99.99
2022-10-26T16:14:01.129Z,99.99
2022-10-26T16:15:05.624Z,99.99
2022-10-26T16:15:58.254Z,99.99
2022-10-26T16:16:58.235Z,99.99
2022-10-26T16:17:57.234Z,99.99
2022-10-26T16:19:18.276Z,99.99
2022-10-26T16:19:58.204Z,99.99
2022-10-26T16:20:58.098Z,99.99
2022-10-26T16:21:57.287Z,99.99
2022-10-26T16:22:58.126Z,99.99
2022-10-26T16:23:57.201Z,99.99
2022-10-26T16:24:57.197Z,99.99
2022-10-26T16:25:57.261Z,99.99
2022-10-26T16:26:58.006Z,99.99
2022-10-26T16:27:57.402Z,99.99
2022-10-26T16:28:57.468Z,99.99
2022-10-26T16:29:58.080Z,99.99